地図

経路データ

SID SEASON NUMBER BASIN SUBBASIN NAME ISO_TIME NATURE LAT LON WMO_WIND WMO_PRES WMO_AGENCY TRACK_TYPE DIST2LAND LANDFALL IFLAG USA_AGENCY USA_ATCF_ID USA_LAT USA_LON USA_RECORD USA_STATUS USA_WIND USA_PRES USA_SSHS USA_R34_NE USA_R34_SE USA_R34_SW USA_R34_NW USA_R50_NE USA_R50_SE USA_R50_SW USA_R50_NW USA_R64_NE USA_R64_SE USA_R64_SW USA_R64_NW USA_POCI USA_ROCI USA_RMW USA_EYE TOKYO_LAT TOKYO_LON TOKYO_GRADE TOKYO_WIND TOKYO_PRES TOKYO_R50_DIR TOKYO_R50_LONG TOKYO_R50_SHORT TOKYO_R30_DIR TOKYO_R30_LONG TOKYO_R30_SHORT TOKYO_LAND CMA_LAT CMA_LON CMA_CAT CMA_WIND CMA_PRES HKO_LAT HKO_LON HKO_CAT HKO_WIND HKO_PRES NEWDELHI_LAT NEWDELHI_LON NEWDELHI_GRADE NEWDELHI_WIND NEWDELHI_PRES NEWDELHI_CI NEWDELHI_DP NEWDELHI_POCI REUNION_LAT REUNION_LON REUNION_TYPE REUNION_WIND REUNION_PRES REUNION_TNUM REUNION_CI REUNION_RMW REUNION_R34_NE REUNION_R34_SE REUNION_R34_SW REUNION_R34_NW REUNION_R50_NE REUNION_R50_SE REUNION_R50_SW REUNION_R50_NW REUNION_R64_NE REUNION_R64_SE REUNION_R64_SW REUNION_R64_NW BOM_LAT BOM_LON BOM_TYPE BOM_WIND BOM_PRES BOM_TNUM BOM_CI BOM_RMW BOM_R34_NE BOM_R34_SE BOM_R34_SW BOM_R34_NW BOM_R50_NE BOM_R50_SE BOM_R50_SW BOM_R50_NW BOM_R64_NE BOM_R64_SE BOM_R64_SW BOM_R64_NW BOM_ROCI BOM_POCI BOM_EYE BOM_POS_METHOD BOM_PRES_METHOD NADI_LAT NADI_LON NADI_CAT NADI_WIND NADI_PRES WELLINGTON_LAT WELLINGTON_LON WELLINGTON_WIND WELLINGTON_PRES DS824_LAT DS824_LON DS824_STAGE DS824_WIND DS824_PRES TD9636_LAT TD9636_LON TD9636_STAGE TD9636_WIND TD9636_PRES TD9635_LAT TD9635_LON TD9635_WIND TD9635_PRES TD9635_ROCI NEUMANN_LAT NEUMANN_LON NEUMANN_CLASS NEUMANN_WIND NEUMANN_PRES MLC_LAT MLC_LON MLC_CLASS MLC_WIND MLC_PRES USA_GUST BOM_GUST BOM_GUST_PER REUNION_GUST REUNION_GUST_PER USA_SEAHGT USA_SEARAD_NE USA_SEARAD_SE USA_SEARAD_SW USA_SEARAD_NW STORM_SPEED STORM_DIR
1951246N13340 1951 66 NA NA FOX 1951-09-02 18:00:00 TS 12.6000 -20.3000 30 hurdat_atl main 380 380 O_____________ hurdat_atl AL071951 12.6000 -20.3000 TD 30 -1 15 274
1951246N13340 1951 66 NA NA FOX 1951-09-02 21:00:00 TS 12.6529 -21.0474 main 439 439 P_____________ AL071951 12.6529 -21.0474 TD 35 0 15 274
1951246N13340 1951 66 NA NA FOX 1951-09-03 00:00:00 TS 12.7000 -21.8000 40 hurdat_atl main 515 515 O_____________ hurdat_atl AL071951 12.7000 -21.8000 TS 40 0 15 273
1951246N13340 1951 66 NA NA FOX 1951-09-03 03:00:00 TS 12.7424 -22.5576 main 594 594 P_____________ AL071951 12.7424 -22.5576 TS 42 0 15 274
1951246N13340 1951 66 NA NA FOX 1951-09-03 06:00:00 TS 12.8000 -23.3000 45 hurdat_atl main 661 661 O_____________ hurdat_atl AL071951 12.8000 -23.3000 TS 45 0 14 276
1951246N13340 1951 66 NA NA FOX 1951-09-03 09:00:00 TS 12.8923 -24.0150 main 730 730 P_____________ AL071951 12.8923 -24.0150 TS 47 0 14 278
1951246N13340 1951 66 NA NA FOX 1951-09-03 12:00:00 TS 13.0000 -24.7000 50 hurdat_atl main 800 800 O_____________ hurdat_atl AL071951 13.0000 -24.7000 TS 50 0 13 279
1951246N13340 1951 66 NA NA FOX 1951-09-03 15:00:00 TS 13.0998 -25.3576 main 871 871 P_____________ AL071951 13.0998 -25.3576 TS 50 0 13 279
1951246N13340 1951 66 NA NA FOX 1951-09-03 18:00:00 TS 13.2000 -26.0000 50 hurdat_atl main 932 932 O_____________ hurdat_atl AL071951 13.2000 -26.0000 TS 50 0 12 279
1951246N13340 1951 66 NA NA FOX 1951-09-03 21:00:00 TS 13.2996 -26.6201 main 994 994 P_____________ AL071951 13.2996 -26.6201 TS 52 0 13 279
1951246N13340 1951 66 NA NA FOX 1951-09-04 00:00:00 TS 13.4000 -27.3000 55 hurdat_atl main 1067 1067 O_____________ hurdat_atl AL071951 13.4000 -27.3000 TS 55 0 14 277
1951246N13340 1951 66 NA NA FOX 1951-09-04 03:00:00 TS 13.4698 -28.0980 main 1151 1151 P_____________ AL071951 13.4698 -28.0980 TS 55 0 17 277
1951246N13340 1951 66 NA NA FOX 1951-09-04 06:00:00 TS 13.6000 -29.0000 55 hurdat_atl main 1246 1246 O_____________ hurdat_atl AL071951 13.6000 -29.0000 TS 55 0 19 282
1951246N13340 1951 66 NA NA FOX 1951-09-04 09:00:00 TS 13.8625 -29.9924 main 1350 1350 P_____________ AL071951 13.8625 -29.9924 TS 55 0 20 287
1951246N13340 1951 66 NA NA FOX 1951-09-04 12:00:00 TS 14.2000 -31.0000 55 hurdat_atl main 1455 1455 O_____________ hurdat_atl AL071951 14.2000 -31.0000 TS 55 0 20 290
1951246N13340 1951 66 NA NA FOX 1951-09-04 15:00:00 TS 14.5421 -31.9227 main 1550 1550 P_____________ AL071951 14.5421 -31.9227 TS 57 0 19 292
1951246N13340 1951 66 NA NA FOX 1951-09-04 18:00:00 TS 14.9000 -32.8000 60 hurdat_atl main 1645 1645 O_____________ hurdat_atl AL071951 14.9000 -32.8000 TS 60 0 18 293
1951246N13340 1951 66 NA NA FOX 1951-09-04 21:00:00 TS 15.2496 -33.6578 main 1741 1741 P_____________ AL071951 15.2496 -33.6578 TS 62 0 18 293
1951246N13340 1951 66 NA NA FOX 1951-09-05 00:00:00 TS 15.6000 -34.5000 65 hurdat_atl main 1827 1827 O_____________ hurdat_atl AL071951 15.6000 -34.5000 HU 65 1 18 294
1951246N13340 1951 66 NA NA FOX 1951-09-05 03:00:00 TS 15.9647 -35.3576 main 1925 1925 P_____________ AL071951 15.9647 -35.3576 HU 67 1 18 293
1951246N13340 1951 66 NA NA FOX 1951-09-05 06:00:00 TS 16.3000 -36.2000 70 hurdat_atl main 2011 2011 O_____________ hurdat_atl AL071951 16.3000 -36.2000 HU 70 1 17 291
1951246N13340 1951 66 NA NA FOX 1951-09-05 09:00:00 TS 16.5647 -37.0154 main 2082 2032 P_____________ AL071951 16.5647 -37.0154 HU 72 1 16 288
1951246N13340 1951 66 NA NA FOX 1951-09-05 12:00:00 TS 16.8000 -37.8000 75 hurdat_atl main 2032 1993 O_____________ hurdat_atl AL071951 16.8000 -37.8000 HU 75 1 16 288
1951246N13340 1951 66 NA NA FOX 1951-09-05 15:00:00 TS 17.0497 -38.5652 main 1985 1957 P_____________ AL071951 17.0497 -38.5652 HU 75 1 15 289
1951246N13340 1951 66 NA NA FOX 1951-09-05 18:00:00 TS 17.3000 -39.3000 75 hurdat_atl main 1957 1924 O_____________ hurdat_atl AL071951 17.3000 -39.3000 HU 75 1 15 290
1951246N13340 1951 66 NA NA FOX 1951-09-05 21:00:00 TS 17.5497 -40.0077 main 1924 1902 P_____________ AL071951 17.5497 -40.0077 HU 77 1 14 291
1951246N13340 1951 66 NA NA FOX 1951-09-06 00:00:00 TS 17.8000 -40.7000 80 hurdat_atl main 1902 1881 O_____________ hurdat_atl AL071951 17.8000 -40.7000 HU 80 1 14 291
1951246N13340 1951 66 NA NA FOX 1951-09-06 03:00:00 TS 18.0421 -41.3854 main 1874 1858 P_____________ AL071951 18.0421 -41.3854 HU 82 1 14 291
1951246N13340 1951 66 NA NA FOX 1951-09-06 06:00:00 TS 18.3000 -42.1000 85 hurdat_atl main 1858 1836 O_____________ hurdat_atl AL071951 18.3000 -42.1000 HU 85 2 15 291
1951246N13340 1951 66 NA NA FOX 1951-09-06 09:00:00 TS 18.5845 -42.8629 main 1833 1809 P_____________ AL071951 18.5845 -42.8629 HU 87 2 16 292
1951246N13340 1951 66 NA NA FOX 1951-09-06 12:00:00 TS 18.9000 -43.7000 90 hurdat_atl main 1812 1791 O_____________ hurdat_atl AL071951 18.9000 -43.7000 HU 90 2 18 291
1951246N13340 1951 66 NA NA FOX 1951-09-06 15:00:00 TS 19.2426 -44.6426 main 1791 1780 P_____________ AL071951 19.2426 -44.6426 HU 90 2 19 291
1951246N13340 1951 66 NA NA FOX 1951-09-06 18:00:00 TS 19.6000 -45.6000 90 hurdat_atl main 1780 1773 O_____________ hurdat_atl AL071951 19.6000 -45.6000 HU 90 2 19 292
1951246N13340 1951 66 NA NA FOX 1951-09-06 21:00:00 TS 19.9419 -46.4656 main 1771 1770 P_____________ AL071951 19.9419 -46.4656 HU 92 2 17 294
1951246N13340 1951 66 NA NA FOX 1951-09-07 00:00:00 TS 20.3000 -47.3000 95 hurdat_atl main 1776 1769 O_____________ hurdat_atl AL071951 20.3000 -47.3000 HU 95 2 17 295
1951246N13340 1951 66 NA NA FOX 1951-09-07 03:00:00 TS 20.6846 -48.1505 main 1767 1731 P_____________ AL071951 20.6846 -48.1505 HU 95 2 18 297
1951246N13340 1951 66 NA NA FOX 1951-09-07 06:00:00 TS 21.1000 -49.0000 95 hurdat_atl main 1731 1686 O_____________ hurdat_atl AL071951 21.1000 -49.0000 HU 95 2 18 298
1951246N13340 1951 66 NA NA FOX 1951-09-07 09:00:00 TS 21.5271 -49.8507 main 1676 1605 P_____________ AL071951 21.5271 -49.8507 HU 97 3 18 300
1951246N13340 1951 66 NA NA FOX 1951-09-07 12:00:00 TS 22.0000 -50.7000 100 hurdat_atl main 1605 1537 O_____________ hurdat_atl AL071951 22.0000 -50.7000 HU 100 3 19 302
1951246N13340 1951 66 NA NA FOX 1951-09-07 15:00:00 TS 22.5274 -51.5727 main 1527 1468 P_____________ AL071951 22.5274 -51.5727 HU 100 3 19 305
1951246N13340 1951 66 NA NA FOX 1951-09-07 18:00:00 TS 23.1000 -52.4000 100 hurdat_atl main 1468 1425 O_____________ hurdat_atl AL071951 23.1000 -52.4000 HU 100 3 18 309
1951246N13340 1951 66 NA NA FOX 1951-09-07 21:00:00 TS 23.6919 -53.1233 main 1425 1387 P_____________ AL071951 23.6919 -53.1233 HU 100 3 18 313
1951246N13340 1951 66 NA NA FOX 1951-09-08 00:00:00 TS 24.3000 -53.8000 100 hurdat_atl main 1387 1351 O_____________ hurdat_atl AL071951 24.3000 -53.8000 HU 100 3 17 313
1951246N13340 1951 66 NA NA FOX 1951-09-08 03:00:00 TS 24.8622 -54.5014 main 1356 1333 P_____________ AL071951 24.8622 -54.5014 HU 97 3 18 313
1951246N13340 1951 66 NA NA FOX 1951-09-08 06:00:00 TS 25.5000 -55.2000 95 hurdat_atl main 1333 1323 O_____________ hurdat_atl AL071951 25.5000 -55.2000 HU 95 2 19 318
1951246N13340 1951 66 NA NA FOX 1951-09-08 09:00:00 TS 26.2599 -55.9087 main 1331 1322 P_____________ AL071951 26.2599 -55.9087 HU 95 2 21 324
1951246N13340 1951 66 NA NA FOX 1951-09-08 12:00:00 TS 27.2000 -56.6000 95 hurdat_atl main 1347 1347 O_____________ hurdat_atl AL071951 27.2000 -56.6000 HU 95 2 24 329
1951246N13340 1951 66 NA NA FOX 1951-09-08 15:00:00 TS 28.3326 -57.2946 main 1392 1392 P_____________ AL071951 28.3326 -57.2946 HU 95 2 27 335
1951246N13340 1951 66 NA NA FOX 1951-09-08 18:00:00 TS 29.6000 -57.9000 95 hurdat_atl main 1474 1474 O_____________ hurdat_atl AL071951 29.6000 -57.9000 HU 95 2 27 340
1951246N13340 1951 66 NA NA FOX 1951-09-08 21:00:00 TS 30.8622 -58.3686 main 1528 1393 P_____________ AL071951 30.8622 -58.3686 HU 92 2 27 345
1951246N13340 1951 66 NA NA FOX 1951-09-09 00:00:00 TS 32.2000 -58.7000 90 hurdat_atl main 1383 1229 O_____________ hurdat_atl AL071951 32.2000 -58.7000 HU 90 2 28 349
1951246N13340 1951 66 NA NA FOX 1951-09-09 03:00:00 TS 33.6422 -59.0243 main 1229 1084 P_____________ AL071951 33.6422 -59.0243 HU 90 2 29 353
1951246N13340 1951 66 NA NA FOX 1951-09-09 06:00:00 TS 35.1000 -59.1000 90 hurdat_atl main 1074 953 O_____________ hurdat_atl AL071951 35.1000 -59.1000 HU 90 2 28 1
1951246N13340 1951 66 NA NA FOX 1951-09-09 09:00:00 TS 36.4756 -58.9429 main 949 863 P_____________ AL071951 36.4756 -58.9429 HU 87 2 28 15
1951246N13340 1951 66 NA NA FOX 1951-09-09 12:00:00 TS 37.8000 -58.2000 85 hurdat_atl main 856 770 O_____________ hurdat_atl AL071951 37.8000 -58.2000 HU 85 2 32 35
1951246N13340 1951 66 NA NA FOX 1951-09-09 15:00:00 TS 39.1050 -56.6442 main 772 717 P_____________ AL071951 39.1050 -56.6442 HU 82 1 37 48
1951246N13340 1951 66 NA NA FOX 1951-09-09 18:00:00 TS 40.3000 -54.6000 80 hurdat_atl main 705 589 O_____________ hurdat_atl AL071951 40.3000 -54.6000 HU 80 1 37 53
1951246N13340 1951 66 NA NA FOX 1951-09-09 21:00:00 TS 41.3093 -52.7548 main 590 524 P_____________ AL071951 41.3093 -52.7548 HU 77 1 37 57
1951246N13340 1951 66 NA NA FOX 1951-09-10 00:00:00 ET 42.3000 -50.5000 75 hurdat_atl main 523 516 O_____________ hurdat_atl AL071951 42.3000 -50.5000 EX 75 -4 44 63
1951246N13340 1951 66 NA NA FOX 1951-09-10 03:00:00 ET 43.3502 -47.4132 main 576 576 P_____________ AL071951 43.3502 -47.4132 EX 75 -4 53 65
1951246N13340 1951 66 NA NA FOX 1951-09-10 06:00:00 ET 44.5000 -43.9000 75 hurdat_atl main 747 747 O_____________ hurdat_atl AL071951 44.5000 -43.9000 EX 75 -4 56 64
1951246N13340 1951 66 NA NA FOX 1951-09-10 09:00:00 ET 45.7991 -40.3710 main 945 945 P_____________ AL071951 45.7991 -40.3710 EX 75 -4 56 61
1951246N13340 1951 66 NA NA FOX 1951-09-10 12:00:00 ET 47.2000 -36.8000 75 hurdat_atl main 1183 1183 O_____________ hurdat_atl AL071951 47.2000 -36.8000 EX 75 -4 56 61
1951246N13340 1951 66 NA NA FOX 1951-09-10 15:00:00 ET 48.5366 -33.1838 main 1432 1375 P_____________ AL071951 48.5366 -33.1838 EX 75 -4 54 59
1951246N13340 1951 66 NA NA FOX 1951-09-10 18:00:00 ET 50.0000 -29.8000 75 hurdat_atl main 1358 1112 O_____________ hurdat_atl AL071951 50.0000 -29.8000 EX 75 -4 52 54
1951246N13340 1951 66 NA NA FOX 1951-09-10 21:00:00 ET 51.6578 -26.5894 main 1097 915 P_____________ AL071951 51.6578 -26.5894 EX 70 -4 50 46
1951246N13340 1951 66 NA NA FOX 1951-09-11 00:00:00 ET 53.5000 -24.0000 65 hurdat_atl main 907 794 O_____________ hurdat_atl AL071951 53.5000 -24.0000 EX 65 -4 46 34
1951246N13340 1951 66 NA NA FOX 1951-09-11 03:00:00 ET 55.4646 -22.3339 main 788 677 P_____________ AL071951 55.4646 -22.3339 EX 60 -4 43 22
1951246N13340 1951 66 NA NA FOX 1951-09-11 06:00:00 ET 57.5000 -21.2000 55 hurdat_atl main 666 O_____________ hurdat_atl AL071951 57.5000 -21.2000 EX 55 -4 42 17

IBTrACS Databaseについて

本データベースは、米国NOAAが公開する1842年以降の世界の熱帯低気圧のベストトラックデータアーカイブInternational Best Track Archive for Climate Stewardship (IBTrACS)を、ウェブで閲覧しやすい形式に変換したものです。

最終更新日:2021-10-21